sensor_id;sensor_type;location;lat;lon;timestamp;pressure;altitude;pressure_sealevel;temperature;humidity
70254;BME280;57649;42.968;1.608;2023-06-14T00:01:14;96743.94;;;16.82;100.00
70254;BME280;57649;42.968;1.608;2023-06-14T00:03:39;96744.09;;;16.87;100.00
70254;BME280;57649;42.968;1.608;2023-06-14T00:06:05;96749.28;;;16.88;100.00
70254;BME280;57649;42.968;1.608;2023-06-14T00:08:30;96750.56;;;16.86;100.00
70254;BME280;57649;42.968;1.608;2023-06-14T00:10:55;96739.31;;;16.89;100.00
70254;BME280;57649;42.968;1.608;2023-06-14T00:13:21;96751.19;;;16.88;100.00
70254;BME280;57649;42.968;1.608;2023-06-14T00:15:46;96756.00;;;16.79;100.00
70254;BME280;57649;42.968;1.608;2023-06-14T00:18:12;96748.13;;;16.78;100.00
70254;BME280;57649;42.968;1.608;2023-06-14T00:20:38;96748.09;;;16.84;100.00
70254;BME280;57649;42.968;1.608;2023-06-14T00:23:04;96749.97;;;16.84;100.00
70254;BME280;57649;42.968;1.608;2023-06-14T00:25:30;96751.78;;;16.90;100.00
70254;BME280;57649;42.968;1.608;2023-06-14T00:27:56;96747.06;;;16.85;100.00
70254;BME280;57649;42.968;1.608;2023-06-14T00:30:22;96747.28;;;16.84;100.00
70254;BME280;57649;42.968;1.608;2023-06-14T00:32:48;96742.69;;;16.84;100.00
70254;BME280;57649;42.968;1.608;2023-06-14T00:35:13;96743.88;;;16.88;100.00
70254;BME280;57649;42.968;1.608;2023-06-14T00:37:39;96745.19;;;16.79;100.00
70254;BME280;57649;42.968;1.608;2023-06-14T00:40:06;96749.41;;;16.75;100.00
70254;BME280;57649;42.968;1.608;2023-06-14T00:42:31;96739.19;;;16.77;100.00
70254;BME280;57649;42.968;1.608;2023-06-14T00:44:57;96735.66;;;16.77;100.00
70254;BME280;57649;42.968;1.608;2023-06-14T00:47:23;96735.88;;;16.75;100.00
70254;BME280;57649;42.968;1.608;2023-06-14T00:49:49;96733.41;;;16.73;100.00
70254;BME280;57649;42.968;1.608;2023-06-14T00:52:16;96725.75;;;16.70;100.00
70254;BME280;57649;42.968;1.608;2023-06-14T00:54:42;96729.66;;;16.74;100.00
70254;BME280;57649;42.968;1.608;2023-06-14T00:57:09;96740.91;;;16.71;100.00
70254;BME280;57649;42.968;1.608;2023-06-14T00:59:40;96726.97;;;16.74;100.00
70254;BME280;57649;42.968;1.608;2023-06-14T01:02:07;96731.09;;;16.77;100.00
70254;BME280;57649;42.968;1.608;2023-06-14T01:04:32;96732.97;;;16.77;100.00
70254;BME280;57649;42.968;1.608;2023-06-14T01:07:08;96732.38;;;16.74;100.00
70254;BME280;57649;42.968;1.608;2023-06-14T01:12:43;96741.44;;;16.80;100.00
70254;BME280;57649;42.968;1.608;2023-06-14T01:15:10;96739.28;;;16.70;100.00
70254;BME280;57649;42.968;1.608;2023-06-14T01:17:37;96735.34;;;16.66;100.00
70254;BME280;57649;42.968;1.608;2023-06-14T01:20:10;96746.44;;;16.58;100.00
70254;BME280;57649;42.968;1.608;2023-06-14T01:22:50;96748.47;;;16.63;100.00
70254;BME280;57649;42.968;1.608;2023-06-14T01:25:16;96741.06;;;16.58;100.00
70254;BME280;57649;42.968;1.608;2023-06-14T01:27:46;96741.66;;;16.60;100.00
70254;BME280;57649;42.968;1.608;2023-06-14T01:30:13;96746.44;;;16.58;100.00
70254;BME280;57649;42.968;1.608;2023-06-14T01:32:39;96742.78;;;16.52;100.00
70254;BME280;57649;42.968;1.608;2023-06-14T01:35:05;96752.50;;;16.53;100.00
70254;BME280;57649;42.968;1.608;2023-06-14T01:37:31;96750.34;;;16.62;100.00
70254;BME280;57649;42.968;1.608;2023-06-14T01:39:58;96750.97;;;16.64;100.00
70254;BME280;57649;42.968;1.608;2023-06-14T01:42:23;96754.94;;;16.62;100.00
70254;BME280;57649;42.968;1.608;2023-06-14T01:44:51;96750.34;;;16.62;100.00
70254;BME280;57649;42.968;1.608;2023-06-14T01:47:19;96753.28;;;16.61;100.00
70254;BME280;57649;42.968;1.608;2023-06-14T01:49:46;96746.00;;;16.61;100.00
70254;BME280;57649;42.968;1.608;2023-06-14T01:52:11;96744.03;;;16.50;100.00
70254;BME280;57649;42.968;1.608;2023-06-14T01:54:37;96733.69;;;16.47;100.00
70254;BME280;57649;42.968;1.608;2023-06-14T01:57:07;96737.16;;;16.54;100.00
70254;BME280;57649;42.968;1.608;2023-06-14T01:59:33;96740.38;;;16.63;100.00
70254;BME280;57649;42.968;1.608;2023-06-14T02:02:02;96744.78;;;16.57;100.00
70254;BME280;57649;42.968;1.608;2023-06-14T02:04:27;96737.28;;;16.59;100.00
70254;BME280;57649;42.968;1.608;2023-06-14T02:06:53;96737.75;;;16.56;100.00
70254;BME280;57649;42.968;1.608;2023-06-14T02:09:18;96734.97;;;16.63;100.00
70254;BME280;57649;42.968;1.608;2023-06-14T02:11:43;96734.31;;;16.67;100.00
70254;BME280;57649;42.968;1.608;2023-06-14T02:14:09;96736.56;;;16.70;100.00
70254;BME280;57649;42.968;1.608;2023-06-14T02:16:37;96727.84;;;16.68;100.00
70254;BME280;57649;42.968;1.608;2023-06-14T02:19:02;96722.31;;;16.63;100.00
70254;BME280;57649;42.968;1.608;2023-06-14T02:21:27;96720.47;;;16.57;100.00
70254;BME280;57649;42.968;1.608;2023-06-14T02:23:53;96726.78;;;16.51;100.00
70254;BME280;57649;42.968;1.608;2023-06-14T02:26:18;96727.66;;;16.45;100.00
70254;BME280;57649;42.968;1.608;2023-06-14T02:28:44;96723.91;;;16.46;100.00
70254;BME280;57649;42.968;1.608;2023-06-14T02:31:09;96733.00;;;16.51;100.00
70254;BME280;57649;42.968;1.608;2023-06-14T02:33:34;96729.03;;;16.54;100.00
70254;BME280;57649;42.968;1.608;2023-06-14T02:36:01;96734.59;;;16.59;100.00
70254;BME280;57649;42.968;1.608;2023-06-14T02:38:27;96732.41;;;16.49;100.00
70254;BME280;57649;42.968;1.608;2023-06-14T02:40:53;96721.75;;;16.54;100.00
70254;BME280;57649;42.968;1.608;2023-06-14T02:43:18;96729.63;;;16.56;100.00
70254;BME280;57649;42.968;1.608;2023-06-14T02:45:44;96733.16;;;16.57;100.00
70254;BME280;57649;42.968;1.608;2023-06-14T02:48:10;96725.56;;;16.47;100.00
70254;BME280;57649;42.968;1.608;2023-06-14T02:50:36;96724.28;;;16.24;100.00
70254;BME280;57649;42.968;1.608;2023-06-14T02:53:01;96730.03;;;16.34;100.00
70254;BME280;57649;42.968;1.608;2023-06-14T02:55:28;96740.56;;;16.43;100.00
70254;BME280;57649;42.968;1.608;2023-06-14T02:57:54;96733.91;;;16.45;100.00
70254;BME280;57649;42.968;1.608;2023-06-14T03:00:19;96733.22;;;16.50;100.00
70254;BME280;57649;42.968;1.608;2023-06-14T03:02:45;96731.78;;;16.47;100.00
70254;BME280;57649;42.968;1.608;2023-06-14T03:05:11;96727.22;;;16.48;100.00
70254;BME280;57649;42.968;1.608;2023-06-14T03:07:36;96721.03;;;16.41;100.00
70254;BME280;57649;42.968;1.608;2023-06-14T03:10:10;96729.91;;;16.48;100.00
70254;BME280;57649;42.968;1.608;2023-06-14T03:12:35;96728.88;;;16.49;100.00
70254;BME280;57649;42.968;1.608;2023-06-14T03:15:02;96727.22;;;16.48;100.00
70254;BME280;57649;42.968;1.608;2023-06-14T03:17:27;96733.97;;;16.57;100.00
70254;BME280;57649;42.968;1.608;2023-06-14T03:19:55;96730.97;;;16.47;100.00
70254;BME280;57649;42.968;1.608;2023-06-14T03:22:20;96741.31;;;16.50;100.00
70254;BME280;57649;42.968;1.608;2023-06-14T03:24:47;96732.63;;;16.48;100.00
70254;BME280;57649;42.968;1.608;2023-06-14T03:27:13;96733.28;;;16.43;100.00
70254;BME280;57649;42.968;1.608;2023-06-14T03:29:39;96743.50;;;16.41;100.00
70254;BME280;57649;42.968;1.608;2023-06-14T03:32:05;96743.13;;;16.38;100.00
70254;BME280;57649;42.968;1.608;2023-06-14T03:34:30;96750.16;;;16.39;100.00
70254;BME280;57649;42.968;1.608;2023-06-14T03:36:56;96744.38;;;16.35;100.00
70254;BME280;57649;42.968;1.608;2023-06-14T03:39:22;96746.41;;;16.40;100.00
70254;BME280;57649;42.968;1.608;2023-06-14T03:41:47;96757.66;;;16.36;100.00
70254;BME280;57649;42.968;1.608;2023-06-14T03:44:17;96773.25;;;16.34;100.00
70254;BME280;57649;42.968;1.608;2023-06-14T03:46:45;96781.84;;;15.93;100.00
70254;BME280;57649;42.968;1.608;2023-06-14T03:49:11;96752.22;;;15.86;100.00
70254;BME280;57649;42.968;1.608;2023-06-14T03:51:37;96761.06;;;15.93;100.00
70254;BME280;57649;42.968;1.608;2023-06-14T03:54:02;96787.94;;;15.82;100.00
70254;BME280;57649;42.968;1.608;2023-06-14T03:56:28;96757.44;;;15.81;100.00
70254;BME280;57649;42.968;1.608;2023-06-14T03:58:53;96763.25;;;15.78;100.00
70254;BME280;57649;42.968;1.608;2023-06-14T04:01:18;96765.13;;;15.77;100.00
70254;BME280;57649;42.968;1.608;2023-06-14T04:03:44;96764.16;;;15.97;100.00
70254;BME280;57649;42.968;1.608;2023-06-14T04:06:09;96763.31;;;16.03;100.00
70254;BME280;57649;42.968;1.608;2023-06-14T04:08:35;96765.56;;;16.06;100.00
70254;BME280;57649;42.968;1.608;2023-06-14T04:11:01;96767.81;;;16.09;100.00
70254;BME280;57649;42.968;1.608;2023-06-14T04:13:26;96750.41;;;16.05;100.00
70254;BME280;57649;42.968;1.608;2023-06-14T04:15:52;96761.66;;;16.02;100.00
70254;BME280;57649;42.968;1.608;2023-06-14T04:18:17;96761.59;;;16.09;100.00
70254;BME280;57649;42.968;1.608;2023-06-14T04:20:44;96766.13;;;16.15;100.00
70254;BME280;57649;42.968;1.608;2023-06-14T04:23:11;96778.13;;;16.19;100.00
70254;BME280;57649;42.968;1.608;2023-06-14T04:25:38;96776.66;;;16.23;100.00
70254;BME280;57649;42.968;1.608;2023-06-14T04:28:03;96782.69;;;16.25;100.00
70254;BME280;57649;42.968;1.608;2023-06-14T04:30:29;96784.81;;;16.16;100.00
70254;BME280;57649;42.968;1.608;2023-06-14T04:32:57;96813.34;;;16.06;100.00
70254;BME280;57649;42.968;1.608;2023-06-14T04:35:22;96799.72;;;15.94;100.00
70254;BME280;57649;42.968;1.608;2023-06-14T04:37:50;96801.53;;;16.00;100.00
70254;BME280;57649;42.968;1.608;2023-06-14T04:40:16;96798.63;;;16.02;100.00
70254;BME280;57649;42.968;1.608;2023-06-14T04:42:41;96799.31;;;15.90;100.00
70254;BME280;57649;42.968;1.608;2023-06-14T04:45:10;96807.34;;;15.97;100.00
70254;BME280;57649;42.968;1.608;2023-06-14T04:47:36;96811.50;;;16.00;100.00
70254;BME280;57649;42.968;1.608;2023-06-14T04:50:03;96802.31;;;16.07;100.00
70254;BME280;57649;42.968;1.608;2023-06-14T04:52:28;96815.19;;;16.12;100.00
70254;BME280;57649;42.968;1.608;2023-06-14T04:54:55;96811.25;;;16.08;100.00
70254;BME280;57649;42.968;1.608;2023-06-14T04:57:21;96812.63;;;16.17;100.00
70254;BME280;57649;42.968;1.608;2023-06-14T04:59:48;96815.34;;;16.17;100.00
70254;BME280;57649;42.968;1.608;2023-06-14T05:02:13;96809.72;;;16.19;100.00
70254;BME280;57649;42.968;1.608;2023-06-14T05:04:39;96811.09;;;16.28;100.00
70254;BME280;57649;42.968;1.608;2023-06-14T05:07:08;96815.41;;;16.35;100.00
70254;BME280;57649;42.968;1.608;2023-06-14T05:09:35;96825.34;;;16.42;100.00
70254;BME280;57649;42.968;1.608;2023-06-14T05:12:01;96828.88;;;16.42;100.00
70254;BME280;57649;42.968;1.608;2023-06-14T05:14:26;96822.88;;;16.40;100.00
70254;BME280;57649;42.968;1.608;2023-06-14T05:16:52;96822.91;;;16.33;100.00
70254;BME280;57649;42.968;1.608;2023-06-14T05:19:18;96832.25;;;16.38;100.00
70254;BME280;57649;42.968;1.608;2023-06-14T05:21:44;96832.94;;;16.26;100.00
70254;BME280;57649;42.968;1.608;2023-06-14T05:24:09;96842.38;;;16.42;100.00
70254;BME280;57649;42.968;1.608;2023-06-14T05:26:36;96841.50;;;16.48;100.00
70254;BME280;57649;42.968;1.608;2023-06-14T05:29:02;96841.47;;;16.55;100.00
70254;BME280;57649;42.968;1.608;2023-06-14T05:31:27;96841.28;;;16.50;100.00
70254;BME280;57649;42.968;1.608;2023-06-14T05:33:54;96846.09;;;16.48;100.00
70254;BME280;57649;42.968;1.608;2023-06-14T05:36:20;96831.06;;;16.52;100.00
70254;BME280;57649;42.968;1.608;2023-06-14T05:38:48;96847.59;;;16.69;100.00
70254;BME280;57649;42.968;1.608;2023-06-14T05:41:14;96845.38;;;16.59;100.00
70254;BME280;57649;42.968;1.608;2023-06-14T05:43:39;96848.13;;;16.52;100.00
70254;BME280;57649;42.968;1.608;2023-06-14T05:46:05;96849.06;;;16.40;100.00
70254;BME280;57649;42.968;1.608;2023-06-14T05:48:30;96843.66;;;16.40;100.00
70254;BME280;57649;42.968;1.608;2023-06-14T05:50:56;96859.09;;;16.32;100.00
70254;BME280;57649;42.968;1.608;2023-06-14T05:53:21;96851.00;;;16.26;100.00
70254;BME280;57649;42.968;1.608;2023-06-14T05:55:46;96855.63;;;16.19;100.00
70254;BME280;57649;42.968;1.608;2023-06-14T05:58:12;96853.41;;;16.09;100.00
70254;BME280;57649;42.968;1.608;2023-06-14T06:00:39;96859.38;;;16.17;100.00
70254;BME280;57649;42.968;1.608;2023-06-14T06:03:04;96860.38;;;16.23;100.00
70254;BME280;57649;42.968;1.608;2023-06-14T06:05:30;96857.03;;;16.28;100.00
70254;BME280;57649;42.968;1.608;2023-06-14T06:07:55;96852.69;;;16.27;100.00
70254;BME280;57649;42.968;1.608;2023-06-14T06:10:21;96858.22;;;16.32;100.00
70254;BME280;57649;42.968;1.608;2023-06-14T06:12:46;96859.78;;;16.21;100.00
70254;BME280;57649;42.968;1.608;2023-06-14T06:15:13;96858.94;;;16.21;100.00
70254;BME280;57649;42.968;1.608;2023-06-14T06:17:39;96869.75;;;16.21;100.00
70254;BME280;57649;42.968;1.608;2023-06-14T06:20:06;96864.72;;;16.24;100.00
70254;BME280;57649;42.968;1.608;2023-06-14T06:22:36;96866.22;;;16.20;100.00
70254;BME280;57649;42.968;1.608;2023-06-14T06:25:01;96874.97;;;16.15;100.00
70254;BME280;57649;42.968;1.608;2023-06-14T06:27:27;96876.59;;;16.23;100.00
70254;BME280;57649;42.968;1.608;2023-06-14T06:29:53;96860.81;;;16.20;100.00
70254;BME280;57649;42.968;1.608;2023-06-14T06:32:18;96876.88;;;16.47;100.00
70254;BME280;57649;42.968;1.608;2023-06-14T06:34:44;96868.69;;;16.53;100.00
70254;BME280;57649;42.968;1.608;2023-06-14T06:37:10;96881.66;;;16.70;100.00
70254;BME280;57649;42.968;1.608;2023-06-14T06:39:35;96881.41;;;16.78;100.00
70254;BME280;57649;42.968;1.608;2023-06-14T06:42:01;96889.44;;;16.91;100.00
70254;BME280;57649;42.968;1.608;2023-06-14T06:44:26;96893.03;;;16.85;100.00
70254;BME280;57649;42.968;1.608;2023-06-14T06:46:52;96897.16;;;16.88;100.00
70254;BME280;57649;42.968;1.608;2023-06-14T06:49:18;96902.38;;;16.83;100.00
70254;BME280;57649;42.968;1.608;2023-06-14T06:51:59;96903.34;;;16.95;100.00
70254;BME280;57649;42.968;1.608;2023-06-14T06:54:26;96903.59;;;16.87;100.00
70254;BME280;57649;42.968;1.608;2023-06-14T06:56:51;96909.38;;;16.90;100.00
70254;BME280;57649;42.968;1.608;2023-06-14T06:59:16;96908.22;;;17.05;100.00
70254;BME280;57649;42.968;1.608;2023-06-14T07:01:42;96904.13;;;17.02;100.00
70254;BME280;57649;42.968;1.608;2023-06-14T07:04:07;96913.84;;;17.03;100.00
70254;BME280;57649;42.968;1.608;2023-06-14T07:06:33;96921.66;;;16.93;100.00
70254;BME280;57649;42.968;1.608;2023-06-14T07:08:58;96920.16;;;16.97;100.00
70254;BME280;57649;42.968;1.608;2023-06-14T07:11:27;96929.44;;;17.08;100.00
70254;BME280;57649;42.968;1.608;2023-06-14T07:13:52;96937.38;;;17.03;100.00
70254;BME280;57649;42.968;1.608;2023-06-14T07:16:18;96933.34;;;17.12;100.00
70254;BME280;57649;42.968;1.608;2023-06-14T07:18:43;96926.69;;;17.15;100.00
70254;BME280;57649;42.968;1.608;2023-06-14T07:21:09;96931.94;;;17.09;100.00
70254;BME280;57649;42.968;1.608;2023-06-14T07:23:34;96926.69;;;17.15;100.00
70254;BME280;57649;42.968;1.608;2023-06-14T07:26:00;96931.38;;;17.26;100.00
70254;BME280;57649;42.968;1.608;2023-06-14T07:28:26;96939.56;;;17.38;100.00
70254;BME280;57649;42.968;1.608;2023-06-14T07:30:51;96940.41;;;17.38;100.00
70254;BME280;57649;42.968;1.608;2023-06-14T07:33:16;96930.19;;;17.40;100.00
70254;BME280;57649;42.968;1.608;2023-06-14T07:35:42;96938.81;;;17.49;100.00
70254;BME280;57649;42.968;1.608;2023-06-14T07:38:07;96942.38;;;17.49;100.00
70254;BME280;57649;42.968;1.608;2023-06-14T07:40:33;96937.84;;;17.43;100.00
70254;BME280;57649;42.968;1.608;2023-06-14T07:42:58;96955.81;;;17.56;100.00
70254;BME280;57649;42.968;1.608;2023-06-14T07:45:24;96960.38;;;17.62;100.00
70254;BME280;57649;42.968;1.608;2023-06-14T07:47:49;96956.97;;;17.67;100.00
70254;BME280;57649;42.968;1.608;2023-06-14T07:50:15;96958.63;;;17.68;100.00
70254;BME280;57649;42.968;1.608;2023-06-14T07:52:40;96961.34;;;17.68;100.00
70254;BME280;57649;42.968;1.608;2023-06-14T07:55:06;96959.53;;;17.80;100.00
70254;BME280;57649;42.968;1.608;2023-06-14T07:57:32;96956.91;;;17.74;100.00
70254;BME280;57649;42.968;1.608;2023-06-14T07:59:57;96967.97;;;17.72;100.00
70254;BME280;57649;42.968;1.608;2023-06-14T08:02:23;96974.34;;;17.78;100.00
70254;BME280;57649;42.968;1.608;2023-06-14T08:04:48;96976.41;;;17.82;100.00
70254;BME280;57649;42.968;1.608;2023-06-14T08:07:14;96970.34;;;17.80;100.00
70254;BME280;57649;42.968;1.608;2023-06-14T08:09:39;96966.16;;;17.84;100.00
70254;BME280;57649;42.968;1.608;2023-06-14T08:12:05;96986.16;;;17.83;100.00
70254;BME280;57649;42.968;1.608;2023-06-14T08:14:39;96976.34;;;17.89;100.00
70254;BME280;57649;42.968;1.608;2023-06-14T08:17:04;96988.72;;;17.78;100.00
70254;BME280;57649;42.968;1.608;2023-06-14T08:19:30;96973.59;;;17.70;100.00
70254;BME280;57649;42.968;1.608;2023-06-14T08:21:56;96983.22;;;17.66;100.00
70254;BME280;57649;42.968;1.608;2023-06-14T08:24:22;96981.06;;;17.75;100.00
70254;BME280;57649;42.968;1.608;2023-06-14T08:26:53;96976.47;;;17.76;100.00
70254;BME280;57649;42.968;1.608;2023-06-14T08:29:18;96993.78;;;17.93;100.00
70254;BME280;57649;42.968;1.608;2023-06-14T08:31:43;96986.94;;;18.09;100.00
70254;BME280;57649;42.968;1.608;2023-06-14T08:34:09;96978.06;;;18.20;100.00
70254;BME280;57649;42.968;1.608;2023-06-14T08:36:37;96968.31;;;18.19;100.00
70254;BME280;57649;42.968;1.608;2023-06-14T08:39:03;96975.59;;;18.19;100.00
70254;BME280;57649;42.968;1.608;2023-06-14T08:41:29;96989.81;;;18.33;100.00
70254;BME280;57649;42.968;1.608;2023-06-14T08:43:55;96990.19;;;18.18;100.00
70254;BME280;57649;42.968;1.608;2023-06-14T08:46:25;96990.25;;;18.30;100.00
70254;BME280;57649;42.968;1.608;2023-06-14T08:48:55;97004.69;;;18.42;100.00
70254;BME280;57649;42.968;1.608;2023-06-14T08:51:22;97007.16;;;18.62;100.00
70254;BME280;57649;42.968;1.608;2023-06-14T08:53:55;96994.91;;;18.71;100.00
70254;BME280;57649;42.968;1.608;2023-06-14T08:56:27;96998.38;;;18.78;100.00
70254;BME280;57649;42.968;1.608;2023-06-14T08:58:54;97009.16;;;18.85;100.00
70254;BME280;57649;42.968;1.608;2023-06-14T09:01:20;97004.22;;;18.94;100.00
70254;BME280;57649;42.968;1.608;2023-06-14T09:03:47;97010.94;;;18.91;100.00
70254;BME280;57649;42.968;1.608;2023-06-14T09:06:13;97012.41;;;19.06;100.00
70254;BME280;57649;42.968;1.608;2023-06-14T09:08:43;97019.00;;;19.10;100.00
70254;BME280;57649;42.968;1.608;2023-06-14T09:11:16;97020.78;;;19.04;100.00
70254;BME280;57649;42.968;1.608;2023-06-14T09:13:44;97015.03;;;19.12;100.00
70254;BME280;57649;42.968;1.608;2023-06-14T09:16:10;97008.63;;;19.07;100.00
70254;BME280;57649;42.968;1.608;2023-06-14T09:18:40;97026.69;;;19.13;100.00
70254;BME280;57649;42.968;1.608;2023-06-14T09:21:07;97033.00;;;19.37;100.00
70254;BME280;57649;42.968;1.608;2023-06-14T09:23:42;97029.84;;;19.40;100.00
70254;BME280;57649;42.968;1.608;2023-06-14T09:26:12;97047.38;;;19.37;100.00
70254;BME280;57649;42.968;1.608;2023-06-14T09:28:47;97037.47;;;19.31;100.00
70254;BME280;57649;42.968;1.608;2023-06-14T09:31:14;97044.81;;;19.42;100.00
70254;BME280;57649;42.968;1.608;2023-06-14T09:33:48;97046.00;;;19.47;100.00
70254;BME280;57649;42.968;1.608;2023-06-14T09:36:20;97037.97;;;19.52;100.00
70254;BME280;57649;42.968;1.608;2023-06-14T09:41:18;97044.00;;;19.42;100.00
70254;BME280;57649;42.968;1.608;2023-06-14T09:43:46;97046.00;;;19.47;100.00
70254;BME280;57649;42.968;1.608;2023-06-14T09:46:12;97049.81;;;19.69;100.00
70254;BME280;57649;42.968;1.608;2023-06-14T09:48:38;97054.97;;;19.59;100.00
70254;BME280;57649;42.968;1.608;2023-06-14T09:51:10;97059.38;;;19.60;100.00
70254;BME280;57649;42.968;1.608;2023-06-14T09:53:36;97038.47;;;19.72;100.00
70254;BME280;57649;42.968;1.608;2023-06-14T09:56:02;97049.81;;;19.69;100.00
70254;BME280;57649;42.968;1.608;2023-06-14T09:58:30;97053.75;;;19.97;100.00
70254;BME280;57649;42.968;1.608;2023-06-14T10:00:58;97054.09;;;19.77;100.00
70254;BME280;57649;42.968;1.608;2023-06-14T10:03:28;97054.22;;;19.94;100.00
70254;BME280;57649;42.968;1.608;2023-06-14T10:05:55;97050.53;;;20.00;100.00
70254;BME280;57649;42.968;1.608;2023-06-14T10:08:27;97038.59;;;20.13;99.89
70254;BME280;57649;42.968;1.608;2023-06-14T10:10:55;97067.53;;;20.07;100.00
70254;BME280;57649;42.968;1.608;2023-06-14T10:13:21;97048.88;;;20.11;98.27
70254;BME280;57649;42.968;1.608;2023-06-14T10:18:57;97056.53;;;20.26;99.41
70254;BME280;57649;42.968;1.608;2023-06-14T10:21:45;97057.34;;;20.38;98.23
70254;BME280;57649;42.968;1.608;2023-06-14T10:24:15;97061.09;;;20.72;96.79
70254;BME280;57649;42.968;1.608;2023-06-14T10:26:52;97049.19;;;20.62;97.27
70254;BME280;57649;42.968;1.608;2023-06-14T10:29:18;97056.66;;;20.43;97.40
70254;BME280;57649;42.968;1.608;2023-06-14T10:34:30;97071.56;;;20.81;97.11
70254;BME280;57649;42.968;1.608;2023-06-14T10:37:14;97071.44;;;20.87;95.40
70254;BME280;57649;42.968;1.608;2023-06-14T10:39:42;97061.72;;;20.91;94.88
70254;BME280;57649;42.968;1.608;2023-06-14T10:42:09;97050.94;;;20.56;95.87
70254;BME280;57649;42.968;1.608;2023-06-14T10:44:45;97047.19;;;20.45;97.16
70254;BME280;57649;42.968;1.608;2023-06-14T10:49:50;97054.66;;;20.26;98.70
70254;BME280;57649;42.968;1.608;2023-06-14T10:52:17;97053.34;;;20.29;98.42
70254;BME280;57649;42.968;1.608;2023-06-14T10:55:16;97053.94;;;20.31;100.00
70254;BME280;57649;42.968;1.608;2023-06-14T10:57:53;97057.16;;;20.28;97.48
70254;BME280;57649;42.968;1.608;2023-06-14T11:00:25;97055.94;;;20.24;99.03
70254;BME280;57649;42.968;1.608;2023-06-14T11:05:27;97052.66;;;20.33;97.58
70254;BME280;57649;42.968;1.608;2023-06-14T11:08:16;97055.72;;;20.37;98.50
70254;BME280;57649;42.968;1.608;2023-06-14T11:10:44;97051.31;;;20.48;96.85
70254;BME280;57649;42.968;1.608;2023-06-14T11:13:13;97040.47;;;20.36;95.82
70254;BME280;57649;42.968;1.608;2023-06-14T11:15:44;97042.94;;;20.26;96.65
70254;BME280;57649;42.968;1.608;2023-06-14T11:18:22;97045.31;;;20.34;97.39
70254;BME280;57649;42.968;1.608;2023-06-14T11:20:52;97050.75;;;20.34;96.96
70254;BME280;57649;42.968;1.608;2023-06-14T11:23:18;97056.84;;;20.53;95.57
70254;BME280;57649;42.968;1.608;2023-06-14T11:25:43;97058.03;;;20.69;96.90
70254;BME280;57649;42.968;1.608;2023-06-14T11:28:09;97060.97;;;20.79;96.81
70254;BME280;57649;42.968;1.608;2023-06-14T11:30:34;97055.06;;;20.58;96.85
70254;BME280;57649;42.968;1.608;2023-06-14T11:33:00;97053.75;;;21.02;96.30
70254;BME280;57649;42.968;1.608;2023-06-14T11:35:26;97058.88;;;20.98;94.71
70254;BME280;57649;42.968;1.608;2023-06-14T11:37:57;97060.03;;;20.73;94.11
70254;BME280;57649;42.968;1.608;2023-06-14T11:40:26;97058.16;;;20.62;93.73
70254;BME280;57649;42.968;1.608;2023-06-14T11:43:00;97060.66;;;20.52;93.15
70254;BME280;57649;42.968;1.608;2023-06-14T11:45:25;97060.25;;;20.60;93.82
70254;BME280;57649;42.968;1.608;2023-06-14T11:47:51;97062.13;;;20.71;94.30
70254;BME280;57649;42.968;1.608;2023-06-14T11:50:16;97065.75;;;20.89;92.37
70254;BME280;57649;42.968;1.608;2023-06-14T11:52:42;97068.34;;;20.95;92.42
70254;BME280;57649;42.968;1.608;2023-06-14T11:55:08;97072.19;;;20.71;94.10
70254;BME280;57649;42.968;1.608;2023-06-14T11:57:34;97062.78;;;20.62;93.26
70254;BME280;57649;42.968;1.608;2023-06-14T12:00:03;97063.22;;;20.58;93.61
70254;BME280;57649;42.968;1.608;2023-06-14T12:02:31;97085.34;;;20.62;93.61
70254;BME280;57649;42.968;1.608;2023-06-14T12:05:04;97067.25;;;20.68;92.76
70254;BME280;57649;42.968;1.608;2023-06-14T12:07:30;97072.41;;;20.81;92.64
70254;BME280;57649;42.968;1.608;2023-06-14T12:12:22;97085.91;;;21.33;89.88
70254;BME280;57649;42.968;1.608;2023-06-14T12:14:48;97064.06;;;21.28;89.88
70254;BME280;57649;42.968;1.608;2023-06-14T12:17:16;97073.53;;;21.55;86.70
70254;BME280;57649;42.968;1.608;2023-06-14T12:19:44;97079.22;;;21.70;85.82
70254;BME280;57649;42.968;1.608;2023-06-14T12:22:11;97077.91;;;21.27;88.57
70254;BME280;57649;42.968;1.608;2023-06-14T12:24:36;97087.00;;;21.32;87.78
70254;BME280;57649;42.968;1.608;2023-06-14T12:27:03;97084.84;;;21.34;86.68
70254;BME280;57649;42.968;1.608;2023-06-14T12:29:31;97107.19;;;21.20;88.01
70254;BME280;57649;42.968;1.608;2023-06-14T12:31:57;97089.13;;;21.30;86.26
70254;BME280;57649;42.968;1.608;2023-06-14T12:34:26;97089.06;;;21.42;87.44
70254;BME280;57649;42.968;1.608;2023-06-14T12:36:54;97089.78;;;21.83;85.05
70254;BME280;57649;42.968;1.608;2023-06-14T12:39:21;97072.25;;;22.30;82.16
70254;BME280;57649;42.968;1.608;2023-06-14T12:41:53;97082.13;;;22.53;81.28
70254;BME280;57649;42.968;1.608;2023-06-14T12:44:19;97074.13;;;22.68;82.57
70254;BME280;57649;42.968;1.608;2023-06-14T12:46:45;97076.03;;;22.68;77.51
70254;BME280;57649;42.968;1.608;2023-06-14T12:49:11;97095.13;;;22.29;80.17
70254;BME280;57649;42.968;1.608;2023-06-14T12:51:38;97081.97;;;22.65;79.47
70254;BME280;57649;42.968;1.608;2023-06-14T12:54:04;97090.75;;;22.28;78.61
70254;BME280;57649;42.968;1.608;2023-06-14T12:56:29;97086.72;;;22.53;77.14
70254;BME280;57649;42.968;1.608;2023-06-14T12:58:55;97091.41;;;22.35;79.68
70254;BME280;57649;42.968;1.608;2023-06-14T13:01:20;97078.50;;;22.70;76.41
70254;BME280;57649;42.968;1.608;2023-06-14T13:03:49;97084.13;;;22.85;75.73
70254;BME280;57649;42.968;1.608;2023-06-14T13:06:16;97073.94;;;22.75;77.25
70254;BME280;57649;42.968;1.608;2023-06-14T13:08:42;97068.84;;;22.62;77.64
70254;BME280;57649;42.968;1.608;2023-06-14T13:11:08;97088.06;;;22.72;76.59